Time;durP1;ratioP1;P1;durP2;ratioP2;P2;SDS_P1;SDS_P2;PMS_P1;PMS_P2;Temp;Humidity;BMP_temperature;BMP_pressure;BME280_temperature;BME280_humidity;BME280_pressure;Samples;Min_cycle;Max_cycle;Signal;HPM_P1;HPM_P2
2021/07/23 00:00:19;;;;;;;8.45;5.05;;;21.10;94.40;;;21.14;67.15;101168.59;4170669;28;20057;-76
2021/07/23 00:02:20;;;;;;;7.78;5.43;;;21.10;95.50;;;20.94;68.81;101159.78;4167816;28;20028;-76
2021/07/23 00:04:21;;;;;;;9.75;5.88;;;21.10;96.20;;;20.93;69.70;101156.31;4170282;28;20029;-76
2021/07/23 00:06:22;;;;;;;8.15;5.85;;;21.00;96.60;;;20.89;68.70;101149.72;4170373;28;20535;-76
2021/07/23 00:08:23;;;;;;;8.00;5.15;;;20.90;96.10;;;20.78;69.78;101155.75;4186782;28;20040;-76
2021/07/23 00:10:24;;;;;;;6.90;5.72;;;20.90;96.50;;;20.80;67.99;101145.63;4171425;28;20026;-76
2021/07/23 00:12:25;;;;;;;7.57;5.50;;;20.80;95.90;;;20.77;69.26;101151.41;4170084;28;20029;-76
2021/07/23 00:14:26;;;;;;;6.43;5.72;;;20.80;96.30;;;20.76;70.00;101155.13;4186996;28;20029;-76
2021/07/23 00:16:27;;;;;;;9.90;6.40;;;20.80;96.80;;;20.76;70.42;101152.44;4171460;28;20037;-76
2021/07/23 00:18:28;;;;;;;7.95;6.00;;;20.70;96.90;;;20.68;70.54;101139.28;4153312;28;20045;-75
2021/07/23 00:20:29;;;;;;;7.72;6.05;;;20.70;97.00;;;20.66;70.32;101137.84;4169937;28;20489;-76
2021/07/23 00:22:30;;;;;;;8.88;6.13;;;20.70;96.80;;;20.69;69.99;101145.47;4170183;28;20060;-76
2021/07/23 00:24:31;;;;;;;7.10;5.63;;;20.70;97.00;;;20.61;70.62;101137.66;4163805;28;20048;-76
2021/07/23 00:26:32;;;;;;;8.52;6.22;;;20.60;97.00;;;20.61;71.03;101135.78;4153714;28;20489;-76
2021/07/23 00:28:33;;;;;;;7.20;5.45;;;20.60;97.30;;;20.59;71.67;101137.88;4186305;28;20103;-76
2021/07/23 00:30:34;;;;;;;8.38;6.00;;;20.60;97.50;;;20.55;71.83;101133.16;4170193;28;20017;-76
2021/07/23 00:32:35;;;;;;;7.43;5.97;;;20.50;97.70;;;20.52;71.50;101145.09;4146163;28;20030;-76
2021/07/23 00:34:36;;;;;;;8.05;6.20;;;20.50;97.50;;;20.58;71.63;101149.63;4169609;28;20026;-76
2021/07/23 00:36:37;;;;;;;8.40;6.03;;;20.50;97.60;;;20.57;71.64;101152.53;4186416;28;20103;-76
2021/07/23 00:38:38;;;;;;;8.68;6.05;;;20.50;97.60;;;20.53;71.61;101133.34;4169798;28;20022;-76
2021/07/23 00:40:39;;;;;;;8.63;6.10;;;20.50;97.60;;;20.56;72.21;101140.97;4178218;28;20433;-76
2021/07/23 00:42:42;;;;;;;9.25;5.97;;;20.50;97.90;;;20.32;72.43;101120.22;4170835;28;20107;-76
2021/07/23 00:44:43;;;;;;;7.50;5.65;;;20.40;97.70;;;20.29;72.28;101110.75;4169547;28;20021;-76
2021/07/23 00:46:45;;;;;;;7.60;5.88;;;20.40;97.80;;;20.34;72.22;101110.09;4169727;28;20580;-76
2021/07/23 00:48:46;;;;;;;8.48;5.90;;;20.30;98.00;;;20.40;70.95;101109.25;4169463;28;20168;-76
2021/07/23 00:50:47;;;;;;;8.38;6.28;;;20.40;97.30;;;20.43;70.20;101115.03;4169648;28;20098;-76
2021/07/23 00:52:49;;;;;;;7.40;6.05;;;20.30;97.00;;;20.34;70.05;101096.72;4169443;28;20041;-76
2021/07/23 00:54:50;;;;;;;7.75;6.18;;;20.40;97.00;;;20.42;70.33;101091.97;4158152;28;20057;-76
2021/07/23 00:56:51;;;;;;;8.35;6.57;;;20.40;97.20;;;20.57;68.31;101094.38;4169492;28;20044;-76
2021/07/23 00:58:57;;;;;;;8.07;5.72;;;20.40;96.30;;;20.50;70.01;101090.06;4170841;28;20520;-76
2021/07/23 01:00:59;;;;;;;7.28;6.03;;;20.40;97.00;;;20.46;69.92;101081.63;4169291;28;20040;-76
2021/07/23 01:03:01;;;;;;;7.65;5.97;;;20.40;97.00;;;20.44;71.18;101072.97;4153004;28;20061;-76
2021/07/23 01:05:03;;;;;;;10.25;5.95;;;20.40;97.50;;;20.47;70.42;101061.84;4169268;28;20083;-76
2021/07/23 01:07:04;;;;;;;7.85;6.75;;;20.40;97.30;;;20.51;70.21;101060.38;4169291;28;20033;-76
2021/07/23 01:09:05;;;;;;;7.55;5.78;;;20.40;97.30;;;20.47;70.34;101056.47;4170039;28;20405;-76
2021/07/23 01:11:06;;;;;;;11.10;6.80;;;20.40;97.30;;;20.75;67.60;101059.66;4169346;28;20025;-76
2021/07/23 01:13:07;;;;;;;9.45;6.13;;;20.50;96.30;;;20.57;67.24;101040.78;4169374;28;20520;-75
2021/07/23 01:15:10;;;;;;;9.38;6.35;;;20.50;96.00;;;20.55;68.68;101047.38;4169275;28;20037;-76
2021/07/23 01:17:11;;;;;;;10.60;7.10;;;20.50;96.50;;;20.59;67.58;101040.53;4169169;28;20512;-75
2021/07/23 01:19:14;;;;;;;8.48;6.20;;;20.50;96.10;;;20.61;67.51;101041.16;4169074;28;20433;-76
2021/07/23 01:21:16;;;;;;;9.93;7.00;;;20.60;96.00;;;20.57;68.81;101034.59;4162157;28;20017;-76
2021/07/23 01:23:33;;;;;;;8.00;6.03;;;20.50;96.60;;;20.67;68.35;101034.94;4170301;28;20496;-76
2021/07/23 01:25:35;;;;;;;9.27;6.65;;;20.50;96.40;;;20.88;65.84;101039.94;4168895;28;20022;-76
2021/07/23 01:27:45;;;;;;;10.35;6.85;;;20.60;95.60;;;20.79;67.12;101028.66;4160717;28;20033;-76
2021/07/23 01:29:47;;;;;;;12.75;6.50;;;20.70;96.00;;;20.85;65.98;101035.84;4169388;28;20017;-76
2021/07/23 01:31:48;;;;;;;9.90;6.28;;;20.70;95.50;;;20.80;65.63;101019.59;4168921;28;20080;-76
2021/07/23 01:33:48;;;;;;;7.32;6.10;;;20.70;95.30;;;20.87;65.64;101012.34;4168549;28;20029;-76
2021/07/23 01:35:49;;;;;;;12.55;6.55;;;20.80;95.30;;;20.87;65.14;101023.06;4185347;28;20021;-76
2021/07/23 01:37:54;;;;;;;8.60;6.25;;;20.90;95.10;;;20.80;66.80;101016.91;4168919;28;20036;-76
2021/07/23 01:39:58;;;;;;;8.30;5.97;;;20.80;95.50;;;20.83;66.58;101015.66;4185101;28;20078;-76
2021/07/23 01:41:59;;;;;;;8.60;5.78;;;20.80;95.50;;;20.79;67.67;101023.31;4168843;28;20174;-76
2021/07/23 01:44:00;;;;;;;9.55;5.82;;;20.80;95.90;;;20.72;67.56;101021.72;4168603;28;20034;-76
2021/07/23 01:46:01;;;;;;;10.05;5.93;;;20.70;96.00;;;20.69;67.84;101027.50;4169947;28;20439;-76
2021/07/23 01:48:02;;;;;;;8.73;5.70;;;20.70;96.10;;;20.64;67.62;101020.09;4169546;28;20034;-76
2021/07/23 01:50:03;;;;;;;9.77;6.28;;;20.60;96.00;;;20.76;66.78;101012.19;4152501;28;20489;-76
2021/07/23 01:52:05;;;;;;;9.93;6.05;;;20.70;95.80;;;20.81;66.77;101010.53;4168621;28;20033;-76
2021/07/23 01:54:06;;;;;;;8.52;5.90;;;20.70;95.90;;;20.65;67.62;101004.84;4168605;28;20459;-76
2021/07/23 01:56:06;;;;;;;8.52;6.38;;;20.70;96.20;;;20.61;68.33;101017.84;4169543;28;20041;-76
2021/07/23 01:58:08;;;;;;;8.45;6.32;;;20.60;96.40;;;20.50;68.56;101013.16;4169793;28;20028;-75
2021/07/23 02:00:09;;;;;;;10.95;7.05;;;20.50;96.50;;;20.39;69.05;101005.81;4168708;28;20088;-76
2021/07/23 02:02:10;;;;;;;9.75;6.57;;;20.40;96.60;;;20.35;69.51;101013.44;4168528;28;20021;-76
2021/07/23 02:04:11;;;;;;;8.57;6.13;;;20.40;96.80;;;20.32;69.27;101011.19;4168043;28;20067;-76
2021/07/23 02:06:12;;;;;;;8.60;6.57;;;20.30;96.90;;;20.43;69.37;101025.75;4185074;28;20392;-76
2021/07/23 02:08:13;;;;;;;10.55;7.00;;;20.30;96.90;;;20.45;69.35;101015.69;4168621;28;20034;-76
2021/07/23 02:10:14;;;;;;;11.18;6.75;;;20.30;97.00;;;20.24;69.61;101013.25;4201635;28;20025;-76
2021/07/23 02:12:15;;;;;;;11.25;6.38;;;20.30;97.00;;;20.38;69.04;101023.75;4169396;28;20029;-76
2021/07/23 02:14:16;;;;;;;9.57;7.28;;;20.20;97.00;;;20.28;69.52;101030.59;4152235;28;20022;-76
2021/07/23 02:16:17;;;;;;;8.15;6.45;;;20.20;97.00;;;20.24;69.68;101024.81;4168222;28;20037;-76
2021/07/23 02:18:18;;;;;;;8.63;6.95;;;20.20;97.10;;;20.29;69.61;101032.22;4168185;28;20389;-76
2021/07/23 02:20:19;;;;;;;8.80;6.88;;;20.10;97.20;;;20.26;69.49;101028.13;4180925;28;20029;-76
2021/07/23 02:22:20;;;;;;;11.63;6.90;;;20.20;97.00;;;20.18;70.22;101032.88;4168169;28;20021;-76
2021/07/23 02:24:21;;;;;;;10.23;6.95;;;20.10;97.20;;;20.12;70.68;101031.03;4159396;28;20488;-75
2021/07/23 02:26:23;;;;;;;8.60;7.25;;;20.10;97.40;;;20.16;70.88;101035.75;4169371;28;20025;-76
2021/07/23 02:28:24;;;;;;;9.32;6.85;;;20.00;97.60;;;20.06;71.29;101031.88;4151886;28;20396;-76
2021/07/23 02:30:25;;;;;;;9.02;6.18;;;20.00;97.70;;;19.93;71.81;101029.22;4184486;28;20024;-76
2021/07/23 02:32:25;;;;;;;9.30;6.47;;;19.90;97.90;;;19.95;71.97;101040.56;4169342;28;20041;-76
2021/07/23 02:34:29;;;;;;;7.57;6.10;;;19.90;98.00;;;19.92;71.72;101032.94;4168941;28;20037;-76
2021/07/23 02:36:30;;;;;;;9.90;6.63;;;19.90;98.00;;;19.90;72.29;101027.78;4169099;28;20440;-76
2021/07/23 02:38:31;;;;;;;8.43;6.22;;;19.80;98.20;;;19.92;72.73;101030.28;4167880;28;20036;-76
2021/07/23 02:40:32;;;;;;;10.32;6.85;;;19.80;98.40;;;19.84;73.39;101021.41;4167895;28;20041;-76
2021/07/23 02:42:33;;;;;;;9.77;6.72;;;19.80;98.60;;;19.86;73.17;101016.66;4167790;28;20038;-76
2021/07/23 02:44:34;;;;;;;8.40;7.60;;;19.80;98.60;;;19.79;73.36;101017.72;4184230;28;20040;-76
2021/07/23 02:46:35;;;;;;;11.00;7.53;;;19.80;98.60;;;19.62;73.74;101005.81;4151554;28;20040;-76
2021/07/23 02:48:36;;;;;;;12.75;8.07;;;19.70;98.70;;;19.68;73.68;101023.72;4168827;28;20033;-76
2021/07/23 02:50:36;;;;;;;11.70;7.05;;;19.70;98.70;;;19.65;73.91;101008.09;4169019;28;20661;-76
2021/07/23 02:52:37;;;;;;;11.68;7.13;;;19.70;98.90;;;19.87;71.08;101006.78;4167773;28;20060;-76
2021/07/23 02:54:38;;;;;;;10.10;8.05;;;19.70;98.00;;;19.88;71.29;101009.28;4184360;28;20033;-76
2021/07/23 02:56:39;;;;;;;8.88;6.72;;;19.80;98.00;;;19.66;72.67;100994.47;4167701;28;20029;-76
2021/07/23 02:58:42;;;;;;;12.45;7.72;;;19.70;98.40;;;19.62;73.28;100997.81;4167875;28;20492;-76
2021/07/23 03:00:43;;;;;;;10.82;7.00;;;19.70;98.60;;;19.56;73.86;100982.56;4168898;28;20099;-76
2021/07/23 03:02:44;;;;;;;9.90;7.15;;;19.60;98.90;;;19.59;74.21;100988.31;4167613;28;20017;-76
2021/07/23 03:04:45;;;;;;;10.23;7.40;;;19.60;99.10;;;19.55;74.74;100979.06;4184122;28;20459;-76
2021/07/23 03:06:45;;;;;;;15.07;7.50;;;19.50;99.20;;;19.47;75.30;100987.31;4151435;28;20033;-76
2021/07/23 03:08:46;;;;;;;11.70;7.68;;;19.50;99.30;;;19.38;75.42;100958.28;4179964;28;20029;-76
2021/07/23 03:10:47;;;;;;;7.88;6.55;;;19.50;99.50;;;19.40;75.95;100969.63;4168713;28;20034;-76
2021/07/23 03:12:48;;;;;;;8.10;6.70;;;19.40;99.70;;;19.34;76.00;100968.56;4168829;28;20378;-76
2021/07/23 03:14:49;;;;;;;9.75;7.93;;;19.40;99.80;;;19.48;75.75;100967.53;4168753;28;20035;-76
2021/07/23 03:16:50;;;;;;;9.35;7.35;;;19.40;99.90;;;19.33;76.09;100956.22;4168607;28;20053;-76
2021/07/23 03:18:51;;;;;;;9.63;6.93;;;19.40;99.90;;;19.27;76.59;100962.41;4167056;28;20033;-76
2021/07/23 03:20:52;;;;;;;10.57;7.25;;;19.30;99.90;;;19.54;73.04;100961.34;4168782;28;20026;-75
2021/07/23 03:22:53;;;;;;;9.20;7.03;;;19.40;99.00;;;19.58;74.42;100962.59;4167594;28;20055;-76
2021/07/23 03:24:55;;;;;;;11.13;6.32;;;19.40;99.40;;;19.48;75.19;100964.03;4168605;28;20392;-76
2021/07/23 03:26:56;;;;;;;13.98;7.47;;;19.40;99.60;;;19.35;74.79;100951.50;4183737;28;20098;-76
2021/07/23 03:28:58;;;;;;;7.78;6.40;;;19.40;99.50;;;19.44;74.39;100963.66;4167520;28;20491;-76
2021/07/23 03:30:59;;;;;;;11.10;6.72;;;19.40;99.30;;;19.43;73.62;100948.63;4160989;28;20021;-76
2021/07/23 03:33:01;;;;;;;8.68;7.05;;;19.40;99.10;;;19.66;73.60;100965.03;4168166;28;20029;-75
2021/07/23 03:35:02;;;;;;;9.38;7.07;;;19.50;99.20;;;19.63;72.81;100949.41;4168372;28;20026;-75
2021/07/23 03:37:03;;;;;;;9.48;6.55;;;19.60;98.80;;;19.50;73.23;100930.72;4167433;28;20045;-76
2021/07/23 03:39:04;;;;;;;6.65;5.78;;;19.50;99.00;;;19.58;73.48;100940.38;4168551;28;20028;-76
2021/07/23 03:41:05;;;;;;;9.00;6.85;;;19.60;98.90;;;19.55;73.27;100933.56;4168538;28;20030;-76
2021/07/23 03:43:06;;;;;;;9.95;7.18;;;19.60;98.90;;;19.58;72.89;100921.63;4168525;28;20563;-76
2021/07/23 03:45:07;;;;;;;11.50;7.55;;;19.60;98.70;;;19.69;72.42;100934.34;4168628;28;20037;-76
2021/07/23 03:47:08;;;;;;;7.68;6.63;;;19.60;98.60;;;19.57;73.62;100936.84;4168516;28;20439;-76
2021/07/23 03:49:09;;;;;;;7.60;6.15;;;19.60;98.90;;;19.54;73.53;100928.41;4168090;28;20079;-76
2021/07/23 03:51:10;;;;;;;10.00;7.13;;;19.60;98.90;;;19.43;74.02;100919.19;4168319;28;20022;-76
2021/07/23 03:53:11;;;;;;;12.50;7.65;;;19.50;99.20;;;19.57;72.35;100920.81;4168449;28;20029;-76
2021/07/23 03:55:12;;;;;;;7.95;6.40;;;19.60;98.50;;;19.57;72.61;100918.13;4167195;28;20400;-76
2021/07/23 03:57:13;;;;;;;12.07;7.40;;;19.60;98.50;;;19.57;72.52;100914.63;4168319;28;20032;-76
2021/07/23 03:59:14;;;;;;;8.60;6.95;;;19.60;98.40;;;19.65;72.11;100909.84;4150636;28;20022;-76
2021/07/23 04:01:15;;;;;;;10.07;7.18;;;19.70;98.40;;;19.67;71.99;100915.00;4183535;28;20067;-76
2021/07/23 04:03:15;;;;;;;12.57;7.85;;;19.70;98.50;;;19.50;72.20;100906.63;4167068;28;20021;-76
2021/07/23 04:05:16;;;;;;;13.30;7.57;;;19.60;98.40;;;19.55;72.70;100901.47;4161480;28;20029;-76
2021/07/23 04:07:17;;;;;;;12.18;7.70;;;19.60;98.50;;;19.59;71.89;100888.50;4166983;28;20436;-76
2021/07/23 04:09:18;;;;;;;10.52;7.10;;;19.60;98.50;;;19.64;72.86;100894.84;4167121;28;20034;-75
2021/07/23 04:11:26;;;;;;;10.93;7.15;;;19.60;98.70;;;19.67;73.18;100890.94;4174081;28;20049;-76
2021/07/23 04:13:27;;;;;;;10.20;6.78;;;19.70;98.80;;;19.52;73.46;100887.69;4168391;28;20036;-75
2021/07/23 04:15:28;;;;;;;7.18;6.35;;;19.60;99.10;;;19.50;74.12;100903.97;4150560;28;20026;-75
2021/07/23 04:17:28;;;;;;;10.13;7.72;;;19.50;99.10;;;19.64;72.24;100907.41;4170995;28;20123;-76
2021/07/23 04:19:29;;;;;;;8.77;7.45;;;19.60;98.70;;;19.57;72.98;100904.75;4150485;28;20026;-76
2021/07/23 04:21:31;;;;;;;9.93;7.53;;;19.60;98.70;;;19.58;72.83;100913.59;4177488;28;20571;-76
2021/07/23 04:23:32;;;;;;;12.60;8.55;;;19.60;98.70;;;19.56;72.89;100905.75;4150642;28;20022;-76
2021/07/23 04:25:33;;;;;;;11.43;8.02;;;19.60;98.80;;;19.47;73.67;100903.56;4167947;28;20025;-76
2021/07/23 04:27:34;;;;;;;12.63;7.93;;;19.60;98.90;;;19.47;74.60;100896.34;4167096;28;20610;-76
2021/07/23 04:29:35;;;;;;;10.23;7.75;;;19.50;99.40;;;19.60;73.60;100887.44;4168119;28;20029;-76
2021/07/23 04:31:36;;;;;;;13.20;8.05;;;19.50;99.20;;;19.44;74.61;100882.56;4167108;28;20025;-76
2021/07/23 04:33:37;;;;;;;8.43;7.32;;;19.50;99.40;;;19.63;73.10;100870.97;4167838;28;20485;-75
2021/07/23 04:35:37;;;;;;;12.82;7.75;;;19.60;99.10;;;19.64;73.46;100880.66;4166914;28;20061;-76
2021/07/23 04:37:39;;;;;;;9.68;7.68;;;19.60;99.00;;;19.46;74.42;100870.63;4167943;28;20604;-76
2021/07/23 04:39:39;;;;;;;9.70;7.90;;;19.60;99.30;;;19.49;73.80;100866.69;4168035;28;20033;-76
2021/07/23 04:41:41;;;;;;;10.60;7.40;;;19.60;99.20;;;19.52;74.36;100869.78;4167872;28;20097;-76
2021/07/23 04:43:42;;;;;;;9.80;8.38;;;19.60;99.50;;;19.60;74.57;100872.22;4150589;28;20029;-76
2021/07/23 04:45:43;;;;;;;10.93;8.20;;;19.50;99.60;;;19.38;74.66;100857.44;4170969;28;20026;-76
2021/07/23 04:47:44;;;;;;;9.52;7.68;;;19.60;99.50;;;19.56;74.75;100876.34;4169478;28;20025;-76
2021/07/23 04:49:44;;;;;;;12.25;7.47;;;19.50;99.70;;;19.73;73.03;100866.00;4186334;28;20036;-76
2021/07/23 04:51:45;;;;;;;14.27;8.18;;;19.60;99.10;;;19.77;72.46;100881.41;4153515;28;20413;-76
2021/07/23 04:53:48;;;;;;;9.48;7.22;;;19.70;98.80;;;19.72;73.07;100875.88;4162153;28;20032;-76
2021/07/23 04:55:52;;;;;;;11.05;7.90;;;19.80;99.00;;;19.53;74.51;100874.09;4170672;28;20033;-76
2021/07/23 04:57:53;;;;;;;9.50;7.72;;;19.70;99.50;;;19.62;74.34;100888.88;4169428;28;20443;-76
2021/07/23 04:59:54;;;;;;;10.07;7.45;;;19.70;99.60;;;19.51;74.60;100884.19;4169711;28;20025;-76
2021/07/23 05:01:55;;;;;;;14.00;8.30;;;19.60;99.60;;;19.55;73.25;100881.91;4170642;28;20481;-76
2021/07/23 05:03:56;;;;;;;11.30;7.88;;;19.60;99.10;;;19.52;74.02;100880.47;4170388;28;20021;-75
2021/07/23 05:05:58;;;;;;;11.80;7.53;;;19.60;99.40;;;19.77;73.11;100872.56;4169367;28;20492;-76
2021/07/23 05:07:59;;;;;;;14.75;8.25;;;19.80;99.10;;;19.73;72.73;100861.47;4185979;28;20049;-76
2021/07/23 05:10:00;;;;;;;13.98;7.15;;;19.80;99.00;;;19.83;71.99;100871.72;4170601;28;20056;-76
2021/07/23 05:12:02;;;;;;;11.02;7.20;;;19.90;98.60;;;19.67;73.42;100873.00;4170437;28;20018;-76
2021/07/23 05:14:06;;;;;;;10.88;7.85;;;19.90;98.90;;;19.66;72.98;100876.72;4169122;28;20022;-76
2021/07/23 05:16:08;;;;;;;;;;;19.90;98.70;;;19.78;72.86;100888.41;4153496;28;20060;-76
2021/07/23 05:18:09;;;;;;;8.73;7.32;;;19.90;98.80;;;19.78;72.55;100866.16;4185335;28;19908;-76
2021/07/23 05:20:10;;;;;;;11.27;7.35;;;20.00;98.60;;;19.68;73.40;100852.44;4170400;28;20481;-76
2021/07/23 05:22:12;;;;;;;10.20;7.00;;;20.00;99.00;;;19.80;73.06;100866.78;4170700;28;20085;-76
2021/07/23 05:24:13;;;;;;;12.00;7.90;;;20.00;98.80;;;19.86;73.03;100861.38;4169188;28;20017;-75
2021/07/23 05:26:14;;;;;;;8.95;7.20;;;20.00;98.90;;;19.97;72.60;100861.75;4168947;28;20022;-76
2021/07/23 05:28:15;;;;;;;10.60;7.95;;;20.00;98.80;;;19.91;72.34;100855.41;4168868;28;20029;-76
2021/07/23 05:30:16;;;;;;;10.27;7.72;;;20.00;98.90;;;19.94;72.57;100860.31;4172112;28;20017;-75
2021/07/23 05:32:18;;;;;;;11.75;7.35;;;20.10;98.70;;;19.90;72.35;100848.41;4170369;28;20036;-76
2021/07/23 05:34:19;;;;;;;11.60;8.05;;;20.10;98.50;;;19.94;72.15;100857.66;4152521;28;20490;-76
2021/07/23 05:36:20;;;;;;;8.15;6.35;;;20.10;98.50;;;19.98;72.38;100856.16;4181712;28;20029;-76
2021/07/23 05:38:21;;;;;;;9.45;7.40;;;20.20;98.70;;;20.08;71.48;100853.84;4168853;28;20024;-76
2021/07/23 05:40:22;;;;;;;9.38;7.30;;;20.20;98.50;;;20.19;71.61;100852.38;4170301;28;20044;-76
2021/07/23 05:42:23;;;;;;;11.13;8.00;;;20.30;98.50;;;20.12;71.88;100857.75;4168837;28;20037;-76
2021/07/23 05:44:24;;;;;;;10.57;7.35;;;20.30;98.50;;;20.11;72.20;100848.06;4185421;28;20036;-76
2021/07/23 05:46:26;;;;;;;9.75;7.13;;;20.40;98.60;;;20.12;72.08;100838.19;4185218;28;20412;-76
2021/07/23 05:48:26;;;;;;;13.10;8.00;;;20.40;98.50;;;20.01;72.43;100847.72;4168896;28;20035;-76
2021/07/23 05:50:27;;;;;;;9.60;7.20;;;20.40;98.30;;;20.17;72.97;100838.34;4168921;28;20030;-76
2021/07/23 05:52:28;;;;;;;9.50;7.43;;;20.40;98.70;;;20.24;71.35;100839.97;4185270;28;20033;-76
2021/07/23 05:54:29;;;;;;;9.60;7.55;;;20.50;98.50;;;20.13;71.68;100823.75;4168632;28;20448;-76
2021/07/23 05:56:30;;;;;;;12.65;7.72;;;20.50;98.10;;;20.09;71.60;100826.06;4140075;28;20034;-76
2021/07/23 05:58:32;;;;;;;11.82;8.05;;;20.50;98.10;;;20.30;71.64;100830.25;4185187;28;20575;-76
2021/07/23 06:00:33;;;;;;;10.40;7.20;;;20.60;98.20;;;20.26;72.25;100818.31;4168548;28;20516;-76
2021/07/23 06:02:34;;;;;;;8.45;7.28;;;20.60;98.50;;;20.25;71.59;100819.34;4168422;28;20025;-76
2021/07/23 06:04:35;;;;;;;11.10;7.78;;;20.70;98.20;;;20.19;71.79;100817.53;4184892;28;20036;-75
2021/07/23 06:06:36;;;;;;;9.43;6.68;;;20.70;97.90;;;20.29;71.85;100809.84;4168594;28;20030;-76
2021/07/23 06:08:37;;;;;;;9.70;7.15;;;20.80;98.10;;;20.26;71.29;100807.63;4146744;28;20038;-76
2021/07/23 06:10:38;;;;;;;7.82;6.57;;;20.80;97.90;;;20.33;71.93;100801.19;4184730;28;20519;-76
2021/07/23 06:12:39;;;;;;;11.50;8.13;;;20.80;98.20;;;20.45;71.23;100806.66;4172829;28;20025;-76
2021/07/23 06:14:40;;;;;;;11.38;7.32;;;20.90;97.90;;;20.46;71.95;100794.06;4168438;28;20504;-76
2021/07/23 06:16:42;;;;;;;13.00;8.07;;;20.90;98.20;;;20.28;72.00;100784.13;4168191;28;20026;-76
2021/07/23 06:18:42;;;;;;;8.35;7.28;;;20.90;97.90;;;20.34;72.34;100781.38;4184065;28;20021;-76
2021/07/23 06:20:43;;;;;;;11.23;7.32;;;21.00;98.10;;;20.29;71.48;100767.00;4169519;28;20032;-76
2021/07/23 06:22:44;;;;;;;10.85;7.82;;;21.00;97.70;;;20.37;71.88;100774.75;4168289;28;20030;-76
2021/07/23 06:24:45;;;;;;;12.48;8.35;;;21.00;98.00;;;20.41;71.54;100770.59;4184664;28;20021;-76
2021/07/23 06:26:46;;;;;;;14.13;7.50;;;21.00;97.70;;;20.49;70.92;100764.16;4168130;28;20476;-75
2021/07/23 06:28:47;;;;;;;21.83;8.20;;;21.10;97.70;;;20.56;71.03;100772.94;4168114;28;20056;-75
2021/07/23 06:30:48;;;;;;;12.25;7.22;;;21.20;97.70;;;20.69;70.94;100773.66;4170900;28;20033;-75
2021/07/23 06:32:49;;;;;;;12.77;8.52;;;21.20;97.80;;;20.57;71.21;100764.69;4171981;28;20052;-76
2021/07/23 06:34:50;;;;;;;20.23;7.43;;;21.20;97.60;;;20.40;71.86;100766.28;4171713;28;20029;-76
2021/07/23 06:36:50;;;;;;;11.77;7.68;;;21.30;97.50;;;20.56;71.32;100744.28;4155345;28;20477;-76
2021/07/23 06:38:51;;;;;;;13.73;8.00;;;21.20;97.60;;;20.75;71.36;100737.91;4172099;28;20078;-76
2021/07/23 06:40:53;;;;;;;11.68;7.65;;;21.30;97.90;;;20.86;70.41;100739.03;4174856;28;20033;-76
2021/07/23 06:42:54;;;;;;;9.90;7.07;;;21.40;97.90;;;20.82;71.10;100740.50;4180774;28;20128;-76
2021/07/23 06:44:55;;;;;;;11.40;8.05;;;21.40;97.70;;;20.70;70.47;100743.09;4167722;28;20025;-76
2021/07/23 06:46:56;;;;;;;11.23;8.27;;;21.50;97.30;;;20.63;71.09;100731.66;4167933;28;20032;-76
2021/07/23 06:48:57;;;;;;;11.65;7.80;;;21.40;97.30;;;20.73;70.24;100733.78;4167721;28;20045;-75
2021/07/23 06:50:58;;;;;;;9.90;7.93;;;21.50;97.20;;;20.86;70.92;100747.06;4184332;28;20028;-75
2021/07/23 06:53:02;;;;;;;11.18;7.90;;;21.50;97.50;;;20.95;70.25;100737.69;4167843;28;20033;-75
2021/07/23 06:55:04;;;;;;;10.75;8.02;;;21.50;97.60;;;20.96;70.99;100731.28;4184352;28;20025;-76
2021/07/23 06:57:05;;;;;;;13.25;7.93;;;21.60;97.60;;;21.12;70.85;100735.25;4167914;28;20033;-76
2021/07/23 06:59:06;;;;;;;15.35;8.18;;;21.60;97.90;;;20.97;70.57;100724.88;4164533;28;20026;-74
2021/07/23 07:01:07;;;;;;;10.90;8.32;;;21.70;97.40;;;21.12;69.97;100725.34;4165527;28;20033;-74
2021/07/23 07:03:08;;;;;;;10.70;8.38;;;21.70;97.40;;;20.79;70.96;100735.59;4149698;28;20025;-73
2021/07/23 07:05:10;;;;;;;11.20;7.90;;;21.70;97.20;;;20.98;70.09;100735.38;4167538;28;20033;-73
2021/07/23 07:07:11;;;;;;;9.25;7.63;;;21.70;97.10;;;20.92;71.20;100738.97;4200005;28;20029;-74
2021/07/23 07:09:12;;;;;;;10.48;7.50;;;21.70;97.40;;;21.16;70.62;100741.81;4168232;28;20033;-74
2021/07/23 07:11:13;;;;;;;12.60;7.13;;;21.80;97.30;;;21.16;70.65;100733.75;4168092;28;20492;-74
2021/07/23 07:13:14;;;;;;;11.40;7.55;;;22.00;97.30;;;21.37;71.17;100746.69;4167216;28;20021;-73
2021/07/23 07:15:15;;;;;;;10.98;8.48;;;22.00;97.80;;;21.44;70.61;100745.56;4168353;28;20037;-73
2021/07/23 07:17:16;;;;;;;11.85;8.18;;;22.10;97.50;;;21.48;70.48;100746.75;4167173;28;20498;-74
2021/07/23 07:19:16;;;;;;;10.15;7.60;;;22.20;97.50;;;21.61;70.46;100742.25;4166991;28;20025;-73
2021/07/23 07:21:17;;;;;;;9.85;7.97;;;22.30;97.50;;;21.87;70.22;100741.84;4166375;28;20033;-74
2021/07/23 07:23:18;;;;;;;12.02;7.50;;;22.50;97.60;;;21.93;69.34;100739.09;4183552;28;20025;-74
2021/07/23 07:25:21;;;;;;;9.02;7.38;;;22.70;97.00;;;22.03;69.48;100727.81;4166734;28;20022;-75
2021/07/23 07:27:22;;;;;;;12.13;7.43;;;22.80;97.20;;;22.12;69.44;100723.72;4167194;28;20033;-74
2021/07/23 07:29:23;;;;;;;12.38;7.53;;;22.90;97.10;;;22.11;69.07;100716.72;4166766;28;20102;-73
2021/07/23 07:31:24;;;;;;;11.88;8.13;;;22.90;96.80;;;21.98;68.12;100717.72;4166334;28;20076;-73
2021/07/23 07:33:24;;;;;;;11.13;8.40;;;22.80;96.40;;;22.02;68.94;100718.91;4165947;28;20036;-75
2021/07/23 07:35:26;;;;;;;9.57;7.88;;;22.80;96.90;;;22.07;68.21;100714.72;4150839;28;20030;-75
2021/07/23 07:37:27;;;;;;;9.60;7.28;;;22.70;96.80;;;21.99;69.56;100695.22;4167171;28;20044;-75
2021/07/23 07:39:29;;;;;;;10.13;7.65;;;22.70;97.10;;;22.08;71.21;100709.13;4183345;28;20496;-75
2021/07/23 07:41:30;;;;;;;13.13;8.20;;;22.60;98.00;;;22.13;69.83;100703.06;4167664;28;20038;-75
2021/07/23 07:43:31;;;;;;;11.80;7.93;;;22.60;97.80;;;22.07;68.78;100709.34;4166814;28;20038;-75
2021/07/23 07:45:33;;;;;;;13.45;8.90;;;22.60;97.30;;;22.16;69.88;100707.97;4183482;28;20028;-74
2021/07/23 07:47:34;;;;;;;11.90;8.02;;;22.60;97.60;;;22.27;70.04;100709.84;4166912;28;20057;-75
2021/07/23 07:49:34;;;;;;;13.40;8.15;;;22.70;97.70;;;22.28;68.37;100698.84;4182784;28;20791;-74
2021/07/23 07:51:35;;;;;;;8.95;8.00;;;22.90;96.90;;;22.44;69.14;100695.47;4166701;28;20453;-75
2021/07/23 07:53:37;;;;;;;11.77;8.20;;;23.00;97.70;;;22.31;68.49;100674.19;4167135;28;20036;-75
2021/07/23 07:55:38;;;;;;;11.43;7.90;;;23.10;96.70;;;22.49;67.27;100668.69;4166807;28;20546;-74
2021/07/23 07:57:42;;;;;;;14.70;8.18;;;23.20;96.20;;;22.56;68.06;100672.06;4165721;28;20229;-75
2021/07/23 07:59:42;;;;;;;;;;;23.30;96.50;;;22.21;68.73;100673.16;4166908;28;20026;-74
2021/07/23 08:01:43;;;;;;;11.05;8.50;;;23.20;96.40;;;22.39;67.92;100662.28;4167285;28;19916;-74
2021/07/23 08:03:44;;;;;;;12.65;7.95;;;23.20;96.30;;;22.58;67.50;100671.81;4167761;28;20489;-75
2021/07/23 08:05:45;;;;;;;10.85;7.65;;;23.30;96.30;;;22.60;67.97;100667.03;4166538;28;20034;-75
2021/07/23 08:07:46;;;;;;;11.88;8.13;;;23.40;96.50;;;22.66;67.82;100659.94;4168015;28;20017;-75
2021/07/23 08:09:56;;;;;;;10.23;7.75;;;23.40;96.40;;;22.82;68.18;100656.50;4166339;28;20416;-75
2021/07/23 08:11:57;;;;;;;10.23;7.18;;;23.50;96.80;;;22.80;67.67;100650.53;4165715;28;20799;-75
2021/07/23 08:13:58;;;;;;;12.38;7.80;;;23.60;96.40;;;22.73;68.40;100656.03;4166506;28;20072;-75
2021/07/23 08:15:59;;;;;;;11.35;7.43;;;23.60;96.50;;;22.60;68.99;100635.59;4139177;28;20691;-75
2021/07/23 08:18:00;;;;;;;10.45;8.52;;;23.60;96.60;;;22.73;68.47;100647.19;4150186;28;20100;-75
2021/07/23 08:20:05;;;;;;;13.23;8.10;;;23.60;96.50;;;22.82;66.93;100640.38;4185322;28;20056;-75
2021/07/23 08:22:07;;;;;;;15.07;8.27;;;23.70;96.00;;;23.06;66.33;100640.03;4169311;28;20065;-75